Wetterdaten: Woche 25.04.16 - 01.05.16 (KW17)
Datum Zeit Auen-Temp. Temp gefhlt Luftfeuchte Luftdruck Regen Wind Richtung Sonnenschein Taupunkt Windben
25.04.2016 00:00 -0,5 C -0,8 C 87 % 1010,8 hPa 0,0 mm 4,9 km/h (1 Bft) W-SW 0,00 h -2,4 C 7,0 km/h (2 Bft)
25.04.2016 01:00 -0,7 C -1,0 C 87 % 1010,8 hPa 0,0 mm 3,2 km/h (1 Bft) W-SW 0,00 h -2,7 C 4,1 km/h (1 Bft)
25.04.2016 02:00 -0,8 C -1,1 C 87 % 1010,5 hPa 0,0 mm 1,6 km/h (1 Bft) W-SW 0,00 h -2,6 C 3,5 km/h (1 Bft)
25.04.2016 03:00 -0,6 C -1,1 C 87 % 1010,2 hPa 0,0 mm 6,3 km/h (2 Bft) W 0,00 h -2,6 C 11,8 km/h (2 Bft)
25.04.2016 04:00 -0,8 C -1,4 C 87 % 1010,0 hPa 0,0 mm 6,9 km/h (2 Bft) NW 0,00 h -2,7 C 9,9 km/h (2 Bft)
25.04.2016 05:00 -1,0 C -1,3 C 87 % 1009,8 hPa 0,0 mm 1,8 km/h (1 Bft) W 0,00 h -3,0 C 3,0 km/h (1 Bft)
25.04.2016 06:00 -1,5 C -1,9 C 87 % 1009,9 hPa 0,0 mm 6,5 km/h (2 Bft) W-NW 0,00 h -3,5 C 8,8 km/h (2 Bft)
25.04.2016 07:00 -1,2 C -1,3 C 85 % 1010,5 hPa 0,0 mm 9,4 km/h (2 Bft) W 0,00 h -3,4 C 11,0 km/h (2 Bft)
25.04.2016 08:00 -0,6 C -0,4 C 84 % 1011,0 hPa 0,0 mm 10,2 km/h (2 Bft) W 0,00 h -3,0 C 14,7 km/h (3 Bft)
25.04.2016 09:00 0,1 C 1,4 C 80 % 1011,6 hPa 0,0 mm 10,8 km/h (2 Bft) W 0,00 h -3,0 C 13,7 km/h (3 Bft)
25.04.2016 10:00 0,9 C 4,7 C 76 % 1012,2 hPa 0,0 mm 10,8 km/h (2 Bft) W 0,33 h -2,8 C 18,0 km/h (3 Bft)
25.04.2016 11:00 1,2 C 4,4 C 75 % 1012,9 hPa 2,1 mm 12,8 km/h (3 Bft) W 0,25 h -2,8 C 18,9 km/h (3 Bft)
25.04.2016 12:00 2,1 C 5,9 C 72 % 1012,8 hPa 2,7 mm 10,8 km/h (2 Bft) W-SW 0,50 h -2,5 C 14,7 km/h (3 Bft)
25.04.2016 13:00 -0,0 C 0,2 C 76 % 1012,5 hPa 0,0 mm 14,6 km/h (3 Bft) W 0,00 h -3,7 C 19,5 km/h (3 Bft)
25.04.2016 14:00 1,6 C 4,3 C 78 % 1012,0 hPa 0,7 mm 14,4 km/h (3 Bft) W-SW 0,00 h -1,9 C 20,4 km/h (4 Bft)
25.04.2016 15:00 3,1 C 5,8 C 72 % 1011,8 hPa 0,0 mm 14,8 km/h (3 Bft) W-SW 0,25 h -1,5 C 18,7 km/h (3 Bft)
25.04.2016 16:00 3,6 C 5,9 C 66 % 1010,8 hPa 0,0 mm 14,9 km/h (3 Bft) NW 0,33 h -2,1 C 21,6 km/h (4 Bft)
25.04.2016 17:00 3,8 C 4,0 C 60 % 1010,3 hPa 0,0 mm 15,4 km/h (3 Bft) W-SW 0,00 h -3,3 C 19,7 km/h (3 Bft)
25.04.2016 18:00 3,7 C 3,7 C 58 % 1009,8 hPa 0,0 mm 16,3 km/h (3 Bft) W-SW 0,00 h -3,8 C 18,1 km/h (3 Bft)
25.04.2016 19:00 2,7 C 2,6 C 59 % 1009,4 hPa 0,0 mm 9,6 km/h (2 Bft) W-SW 0,00 h -4,6 C 10,2 km/h (2 Bft)
25.04.2016 20:00 1,1 C 0,5 C 63 % 1009,1 hPa 0,0 mm 7,2 km/h (2 Bft) SW 0,00 h -5,2 C 8,1 km/h (2 Bft)
25.04.2016 21:00 -0,0 C -0,5 C 68 % 1008,8 hPa 0,0 mm 3,8 km/h (1 Bft) SW 0,00 h -5,1 C 4,2 km/h (1 Bft)
25.04.2016 22:00 0,3 C -0,3 C 68 % 1008,5 hPa 0,0 mm 5,9 km/h (2 Bft) W-SW 0,00 h -4,8 C 7,2 km/h (2 Bft)
25.04.2016 23:00 0,5 C -0,4 C 68 % 1008,2 hPa 0,0 mm 8,4 km/h (2 Bft) SW 0,00 h -4,8 C 10,5 km/h (2 Bft)
26.04.2016 00:00 -0,5 C -1,1 C 72 % 1007,8 hPa 0,0 mm 3,5 km/h (1 Bft) S-SW 0,00 h -5,0 C 5,0 km/h (1 Bft)
26.04.2016 01:00 -1,9 C -2,4 C 77 % 1007,0 hPa 0,0 mm 0,9 km/h (0 Bft) S-SW 0,00 h -5,3 C 1,6 km/h (1 Bft)
26.04.2016 02:00 -1,2 C -1,5 C 78 % 1006,2 hPa 0,0 mm 1,0 km/h (0 Bft) O-SO 0,00 h -4,5 C 1,5 km/h (1 Bft)
26.04.2016 03:00 -0,5 C -0,7 C 78 % 1005,5 hPa 0,0 mm 1,1 km/h (0 Bft) SW 0,00 h -3,9 C 1,9 km/h (1 Bft)
26.04.2016 04:00 0,5 C 0,3 C 75 % 1004,8 hPa 0,0 mm 2,3 km/h (1 Bft) SO 0,00 h -3,3 C 4,2 km/h (1 Bft)
26.04.2016 05:00 1,0 C 0,8 C 74 % 1004,3 hPa 0,0 mm 3,2 km/h (1 Bft) SW 0,00 h -3,1 C 3,9 km/h (1 Bft)
26.04.2016 06:00 2,4 C 2,0 C 67 % 1003,7 hPa 0,0 mm 7,4 km/h (2 Bft) W-SW 0,00 h -3,1 C 12,8 km/h (3 Bft)
26.04.2016 07:00 3,8 C 3,7 C 62 % 1003,4 hPa 0,0 mm 7,7 km/h (2 Bft) W 0,00 h -2,7 C 12,0 km/h (2 Bft)
26.04.2016 08:00 5,2 C 6,0 C 59 % 1003,5 hPa 0,0 mm 6,9 km/h (2 Bft) W 0,00 h -2,1 C 9,5 km/h (2 Bft)
26.04.2016 09:00 6,5 C 8,1 C 58 % 1003,5 hPa 0,0 mm 7,6 km/h (2 Bft) W 0,00 h -1,2 C 9,3 km/h (2 Bft)
26.04.2016 10:00 7,2 C 8,5 C 57 % 1003,6 hPa 0,0 mm 12,7 km/h (3 Bft) W 0,00 h -0,8 C 16,5 km/h (3 Bft)
26.04.2016 11:00 6,5 C 7,2 C 58 % 1004,0 hPa 0,0 mm 18,0 km/h (3 Bft) W-NW 0,00 h -1,2 C 24,7 km/h (4 Bft)
26.04.2016 12:00 6,9 C 7,8 C 59 % 1004,0 hPa 0,0 mm 20,7 km/h (4 Bft) W 0,00 h -0,6 C 26,9 km/h (4 Bft)
26.04.2016 13:00 6,8 C 7,6 C 62 % 1004,0 hPa 0,0 mm 17,9 km/h (3 Bft) W 0,00 h -0,0 C 22,4 km/h (4 Bft)
26.04.2016 14:00 6,9 C 7,6 C 62 % 1004,0 hPa 0,0 mm 16,0 km/h (3 Bft) W 0,00 h 0,2 C 20,0 km/h (4 Bft)
26.04.2016 15:00 6,6 C 7,4 C 63 % 1004,1 hPa 0,0 mm 19,8 km/h (4 Bft) W-SW 0,00 h 0,1 C 28,7 km/h (4 Bft)
26.04.2016 16:00 3,9 C 3,5 C 75 % 1004,4 hPa 0,0 mm 16,8 km/h (3 Bft) W-SW 0,00 h -0,2 C 20,6 km/h (4 Bft)
26.04.2016 17:00 2,2 C 1,5 C 79 % 1004,7 hPa 0,7 mm 13,9 km/h (3 Bft) W 0,00 h -1,0 C 14,7 km/h (3 Bft)
26.04.2016 18:00 0,9 C 0,8 C 80 % 1004,7 hPa 0,0 mm 0,6 km/h (0 Bft) S-SW 0,00 h -2,1 C 0,3 km/h (0 Bft)
26.04.2016 19:00 0,7 C 0,5 C 82 % 1004,2 hPa 0,7 mm 0,1 km/h (0 Bft) N 0,00 h -2,0 C 0,0 km/h (0 Bft)
26.04.2016 20:00 0,6 C 0,4 C 87 % 1003,9 hPa 0,0 mm 0,9 km/h (0 Bft) O-SO 0,00 h -1,3 C 0,6 km/h (0 Bft)
26.04.2016 21:00 0,4 C 0,2 C 88 % 1003,9 hPa 0,0 mm 0,0 km/h (0 Bft) N 0,00 h -1,4 C 0,0 km/h (0 Bft)
26.04.2016 22:00 0,4 C 0,2 C 89 % 1003,7 hPa 0,0 mm 0,2 km/h (0 Bft) N 0,00 h -1,2 C 0,3 km/h (0 Bft)
26.04.2016 23:00 0,2 C -0,2 C 90 % 1003,6 hPa 0,0 mm 5,4 km/h (1 Bft) W 0,00 h -1,3 C 7,0 km/h (2 Bft)
27.04.2016 00:00 -0,5 C -0,7 C 85 % 1004,3 hPa 0,0 mm 1,7 km/h (1 Bft) W 0,00 h -2,7 C 2,8 km/h (1 Bft)
27.04.2016 01:00 -0,7 C -0,8 C 86 % 1005,0 hPa 0,0 mm 0,0 km/h (0 Bft) N 0,00 h -2,8 C 0,0 km/h (0 Bft)
27.04.2016 02:00 -0,7 C -0,8 C 86 % 1005,2 hPa 0,0 mm 0,0 km/h (0 Bft) N 0,00 h -2,8 C 0,0 km/h (0 Bft)
27.04.2016 03:00 -0,4 C -0,5 C 88 % 1005,3 hPa 0,0 mm 0,0 km/h (0 Bft) N 0,00 h -2,1 C 0,0 km/h (0 Bft)
27.04.2016 04:00 -0,5 C -0,6 C 87 % 1005,7 hPa 0,0 mm 0,0 km/h (0 Bft) N 0,00 h -2,4 C 0,0 km/h (0 Bft)
27.04.2016 05:00 -0,8 C -1,0 C 87 % 1006,3 hPa 0,0 mm 1,7 km/h (1 Bft) W 0,00 h -2,7 C 3,3 km/h (1 Bft)
27.04.2016 06:00 -1,2 C -1,3 C 86 % 1007,1 hPa 0,0 mm 2,8 km/h (1 Bft) W 0,00 h -3,2 C 6,0 km/h (2 Bft)
27.04.2016 07:00 -1,1 C -0,8 C 85 % 1007,6 hPa 0,0 mm 2,8 km/h (1 Bft) W 0,00 h -3,3 C 5,1 km/h (1 Bft)
27.04.2016 08:00 -0,8 C 0,1 C 85 % 1008,2 hPa 0,0 mm 4,2 km/h (1 Bft) W 0,00 h -3,0 C 8,4 km/h (2 Bft)
27.04.2016 09:00 -0,6 C 0,8 C 85 % 1008,6 hPa 0,0 mm 5,1 km/h (1 Bft) W 0,00 h -2,8 C 8,5 km/h (2 Bft)
27.04.2016 10:00 1,0 C 5,8 C 81 % 1009,3 hPa 1,4 mm 6,6 km/h (2 Bft) W 0,17 h -2,0 C 15,5 km/h (3 Bft)
27.04.2016 11:00 2,1 C 7,6 C 73 % 1011,3 hPa 2,1 mm 16,7 km/h (3 Bft) W-NW 0,17 h -2,2 C 22,8 km/h (4 Bft)
27.04.2016 12:00 2,8 C 6,4 C 67 % 1012,3 hPa 4,8 mm 16,1 km/h (3 Bft) SW 0,00 h -2,7 C 21,2 km/h (4 Bft)
27.04.2016 13:00 3,7 C 6,1 C 62 % 1012,2 hPa 1,4 mm 17,4 km/h (3 Bft) W-SW 0,00 h -2,9 C 23,8 km/h (4 Bft)
27.04.2016 14:00 4,4 C 6,5 C 59 % 1011,9 hPa 0,0 mm 18,2 km/h (3 Bft) W 0,00 h -2,9 C 26,2 km/h (4 Bft)
27.04.2016 15:00 5,7 C 7,7 C 54 % 1011,2 hPa 0,0 mm 18,8 km/h (3 Bft) W-SW 0,00 h -2,8 C 24,7 km/h (4 Bft)
27.04.2016 16:00 4,8 C 6,4 C 56 % 1011,2 hPa 0,0 mm 18,4 km/h (3 Bft) W 0,00 h -3,3 C 25,5 km/h (4 Bft)
27.04.2016 17:00 4,4 C 4,5 C 57 % 1011,3 hPa 0,0 mm 15,7 km/h (3 Bft) W 0,00 h -3,4 C 17,4 km/h (3 Bft)
27.04.2016 18:00 3,7 C 3,6 C 58 % 1011,3 hPa 0,0 mm 18,1 km/h (3 Bft) W-NW 0,00 h -3,9 C 19,4 km/h (3 Bft)
27.04.2016 19:00 3,0 C 5,0 C 59 % 1011,7 hPa 0,0 mm 8,4 km/h (2 Bft) W-SW 0,50 h -4,3 C 11,3 km/h (2 Bft)
27.04.2016 20:00 0,9 C 1,8 C 62 % 1012,1 hPa 0,0 mm 2,0 km/h (1 Bft) O 0,25 h -5,5 C 2,1 km/h (1 Bft)
27.04.2016 21:00 -0,5 C -1,2 C 68 % 1012,4 hPa 0,0 mm 2,9 km/h (1 Bft) S 0,00 h -5,8 C 4,2 km/h (1 Bft)
27.04.2016 22:00 -1,3 C -1,9 C 73 % 1012,7 hPa 0,0 mm 1,4 km/h (1 Bft) SO 0,00 h -5,6 C 2,1 km/h (1 Bft)
27.04.2016 23:00 -2,0 C -2,7 C 75 % 1012,9 hPa 0,0 mm 0,8 km/h (0 Bft) O 0,00 h -5,8 C 0,8 km/h (0 Bft)
28.04.2016 00:00 -2,9 C -3,7 C 76 % 1012,7 hPa 0,0 mm 0,0 km/h (0 Bft) N 0,00 h -6,6 C 0,3 km/h (0 Bft)
28.04.2016 01:00 -3,0 C -3,7 C 77 % 1012,4 hPa 0,0 mm 0,4 km/h (0 Bft) O-NO 0,00 h -6,4 C 2,8 km/h (1 Bft)
28.04.2016 02:00 -3,7 C -4,4 C 76 % 1012,3 hPa 0,0 mm 0,0 km/h (0 Bft) N 0,00 h -7,3 C 0,0 km/h (0 Bft)
28.04.2016 03:00 -4,1 C -4,8 C 77 % 1012,2 hPa 0,0 mm 0,0 km/h (0 Bft) N 0,00 h -7,5 C 0,0 km/h (0 Bft)
28.04.2016 04:00 -4,0 C -4,5 C 77 % 1012,0 hPa 0,0 mm 0,0 km/h (0 Bft) N 0,00 h -7,5 C 0,0 km/h (0 Bft)
28.04.2016 05:00 -3,3 C -3,7 C 76 % 1011,8 hPa 0,0 mm 0,0 km/h (0 Bft) N 0,00 h -7,0 C 0,0 km/h (0 Bft)
28.04.2016 06:00 -2,9 C -3,1 C 74 % 1012,0 hPa 0,0 mm 0,0 km/h (0 Bft) N 0,00 h -6,9 C 0,0 km/h (0 Bft)
28.04.2016 07:00 -2,5 C -1,4 C 73 % 1012,5 hPa 0,0 mm 0,0 km/h (0 Bft) N 0,00 h -6,7 C 0,0 km/h (0 Bft)
28.04.2016 08:00 -0,6 C 1,8 C 71 % 1013,1 hPa 0,0 mm 0,7 km/h (0 Bft) NW 0,00 h -5,1 C 1,5 km/h (1 Bft)
28.04.2016 09:00 2,5 C 6,5 C 64 % 1013,7 hPa 0,0 mm 2,8 km/h (1 Bft) NW 0,67 h -3,6 C 3,7 km/h (1 Bft)
28.04.2016 10:00 5,0 C 8,8 C 56 % 1014,1 hPa 0,0 mm 5,3 km/h (1 Bft) W 0,67 h -3,1 C 6,8 km/h (2 Bft)
28.04.2016 11:00 6,7 C 11,2 C 49 % 1014,7 hPa 0,0 mm 9,7 km/h (2 Bft) W-NW 0,75 h -3,4 C 13,7 km/h (3 Bft)
28.04.2016 12:00 7,0 C 9,3 C 45 % 1015,1 hPa 0,0 mm 13,2 km/h (3 Bft) NW 0,00 h -4,0 C 17,3 km/h (3 Bft)
28.04.2016 13:00 7,2 C 9,9 C 44 % 1015,1 hPa 0,0 mm 9,7 km/h (2 Bft) W 0,08 h -4,1 C 12,4 km/h (3 Bft)
28.04.2016 14:00 8,7 C 12,0 C 44 % 1014,8 hPa 0,0 mm 13,3 km/h (3 Bft) NW 0,33 h -2,9 C 18,2 km/h (3 Bft)
28.04.2016 15:00 8,4 C 11,4 C 43 % 1014,8 hPa 0,0 mm 11,0 km/h (2 Bft) W-SW 0,33 h -3,5 C 12,9 km/h (3 Bft)
28.04.2016 16:00 7,9 C 9,9 C 42 % 1014,4 hPa 0,0 mm 8,7 km/h (2 Bft) W 0,00 h -4,3 C 11,2 km/h (2 Bft)
28.04.2016 17:00 8,0 C 8,8 C 42 % 1014,3 hPa 0,0 mm 9,9 km/h (2 Bft) W 0,00 h -4,1 C 11,3 km/h (2 Bft)
28.04.2016 18:00 7,6 C 8,5 C 43 % 1014,6 hPa 0,0 mm 7,8 km/h (2 Bft) NW 0,00 h -4,1 C 9,0 km/h (2 Bft)
28.04.2016 19:00 7,3 C 9,2 C 46 % 1014,8 hPa 0,0 mm 8,3 km/h (2 Bft) NW 0,33 h -3,6 C 10,5 km/h (2 Bft)
28.04.2016 20:00 4,0 C 4,4 C 54 % 1015,2 hPa 0,0 mm 1,8 km/h (1 Bft) NW 0,00 h -4,5 C 1,4 km/h (1 Bft)
28.04.2016 21:00 2,2 C 1,8 C 67 % 1015,7 hPa 0,0 mm 1,5 km/h (1 Bft) S-SO 0,00 h -3,4 C 1,9 km/h (1 Bft)
28.04.2016 22:00 1,0 C 0,6 C 72 % 1016,0 hPa 0,0 mm 0,1 km/h (0 Bft) N 0,00 h -3,4 C 0,0 km/h (0 Bft)
28.04.2016 23:00 -0,1 C -0,7 C 74 % 1016,1 hPa 0,0 mm 0,0 km/h (0 Bft) N 0,00 h -4,1 C 0,0 km/h (0 Bft)
29.04.2016 00:00 -0,8 C -1,4 C 78 % 1015,8 hPa 0,0 mm 0,0 km/h (0 Bft) N 0,00 h -4,1 C 0,0 km/h (0 Bft)
29.04.2016 01:00 -1,6 C -2,2 C 79 % 1015,8 hPa 0,0 mm 0,0 km/h (0 Bft) N 0,00 h -4,8 C 0,0 km/h (0 Bft)
29.04.2016 02:00 -1,3 C -1,7 C 80 % 1015,5 hPa 0,0 mm 0,0 km/h (0 Bft) N 0,00 h -4,2 C 0,0 km/h (0 Bft)
29.04.2016 03:00 -0,9 C -1,5 C 82 % 1015,4 hPa 0,0 mm 0,0 km/h (0 Bft) N 0,00 h -3,7 C 0,0 km/h (0 Bft)
29.04.2016 04:00 -1,6 C -2,1 C 81 % 1015,4 hPa 0,0 mm 0,0 km/h (0 Bft) N 0,00 h -4,4 C 0,0 km/h (0 Bft)
29.04.2016 05:00 -1,6 C -2,2 C 83 % 1015,3 hPa 0,0 mm 0,0 km/h (0 Bft) N 0,00 h -4,1 C 0,0 km/h (0 Bft)
29.04.2016 06:00 -1,2 C -1,0 C 84 % 1015,5 hPa 0,0 mm 0,0 km/h (0 Bft) N 0,17 h -3,5 C 0,0 km/h (0 Bft)
29.04.2016 07:00 0,8 C 6,8 C 82 % 1016,0 hPa 0,0 mm 0,0 km/h (0 Bft) N 0,92 h -2,0 C 0,0 km/h (0 Bft)
29.04.2016 08:00 6,3 C 15,7 C 68 % 1016,3 hPa 0,0 mm 0,1 km/h (0 Bft) N-NO 1,00 h 0,8 C 0,5 km/h (0 Bft)
29.04.2016 09:00 8,9 C 16,3 C 56 % 1017,4 hPa 0,0 mm 3,3 km/h (1 Bft) NO 1,00 h 0,7 C 5,0 km/h (1 Bft)
29.04.2016 10:00 10,2 C 17,0 C 51 % 1018,5 hPa 0,0 mm 3,9 km/h (1 Bft) N-NW 1,00 h 0,4 C 5,7 km/h (1 Bft)
29.04.2016 11:00 11,6 C 17,6 C 48 % 1019,1 hPa 0,0 mm 5,8 km/h (1 Bft) NO 1,00 h 0,9 C 10,0 km/h (2 Bft)
29.04.2016 12:00 12,5 C 16,9 C 47 % 1019,1 hPa 0,0 mm 7,7 km/h (2 Bft) NO 0,58 h 1,4 C 10,7 km/h (2 Bft)
29.04.2016 13:00 12,9 C 15,9 C 44 % 1018,4 hPa 0,0 mm 7,1 km/h (2 Bft) NW 0,25 h 1,0 C 9,4 km/h (2 Bft)
29.04.2016 14:00 13,1 C 16,0 C 43 % 1017,4 hPa 0,0 mm 6,4 km/h (2 Bft) N-NO 0,42 h 1,0 C 7,9 km/h (2 Bft)
29.04.2016 15:00 14,6 C 19,4 C 40 % 1016,7 hPa 0,0 mm 7,8 km/h (2 Bft) O-NO 0,92 h 1,1 C 9,2 km/h (2 Bft)
29.04.2016 16:00 14,4 C 19,2 C 39 % 1016,2 hPa 0,0 mm 7,1 km/h (2 Bft) NO 1,00 h 0,5 C 8,6 km/h (2 Bft)
29.04.2016 17:00 13,9 C 15,6 C 39 % 1015,9 hPa 0,0 mm 9,3 km/h (2 Bft) NO 0,08 h 0,1 C 11,0 km/h (2 Bft)
29.04.2016 18:00 13,3 C 15,1 C 38 % 1015,7 hPa 0,0 mm 7,2 km/h (2 Bft) NO 0,33 h -0,6 C 10,2 km/h (2 Bft)
29.04.2016 19:00 12,4 C 14,9 C 40 % 1015,6 hPa 0,0 mm 6,7 km/h (2 Bft) NO 0,75 h -0,8 C 8,1 km/h (2 Bft)
29.04.2016 20:00 9,3 C 9,7 C 48 % 1015,7 hPa 0,0 mm 0,6 km/h (0 Bft) SO 0,08 h -1,3 C 1,5 km/h (1 Bft)
29.04.2016 21:00 5,8 C 5,9 C 59 % 1016,0 hPa 0,0 mm 2,3 km/h (1 Bft) S-SO 0,00 h -1,7 C 2,9 km/h (1 Bft)
29.04.2016 22:00 4,4 C 4,0 C 65 % 1016,0 hPa 0,0 mm 0,8 km/h (0 Bft) SO 0,00 h -1,6 C 0,8 km/h (0 Bft)
29.04.2016 23:00 2,5 C 1,9 C 69 % 1015,9 hPa 0,0 mm 0,0 km/h (0 Bft) N 0,00 h -2,6 C 0,0 km/h (0 Bft)
30.04.2016 00:00 2,7 C 2,2 C 70 % 1015,8 hPa 0,0 mm 0,0 km/h (0 Bft) N 0,00 h -2,1 C 0,3 km/h (0 Bft)
30.04.2016 01:00 1,3 C 0,7 C 73 % 1015,7 hPa 0,0 mm 0,1 km/h (0 Bft) N 0,00 h -3,0 C 0,5 km/h (0 Bft)
30.04.2016 02:00 0,6 C 0,0 C 76 % 1015,4 hPa 0,0 mm 0,0 km/h (0 Bft) N 0,00 h -3,1 C 0,0 km/h (0 Bft)
30.04.2016 03:00 1,1 C 0,6 C 75 % 1015,3 hPa 0,0 mm 0,1 km/h (0 Bft) N 0,00 h -2,8 C 0,0 km/h (0 Bft)
30.04.2016 04:00 0,1 C -0,4 C 78 % 1015,2 hPa 0,0 mm 0,0 km/h (0 Bft) N 0,00 h -3,2 C 0,0 km/h (0 Bft)
30.04.2016 05:00 -0,8 C -1,2 C 79 % 1015,1 hPa 0,0 mm 0,0 km/h (0 Bft) N 0,00 h -4,0 C 0,0 km/h (0 Bft)
30.04.2016 06:00 -0,7 C -0,0 C 80 % 1014,9 hPa 0,0 mm 0,0 km/h (0 Bft) N 0,17 h -3,8 C 0,0 km/h (0 Bft)
30.04.2016 07:00 2,8 C 8,8 C 75 % 1015,3 hPa 0,0 mm 0,0 km/h (0 Bft) N 0,92 h -1,2 C 0,3 km/h (0 Bft)
30.04.2016 08:00 9,8 C 19,0 C 62 % 1015,5 hPa 0,0 mm 0,2 km/h (0 Bft) S 1,00 h 2,8 C 0,5 km/h (0 Bft)
30.04.2016 09:00 13,4 C 19,7 C 52 % 1016,5 hPa 0,0 mm 6,3 km/h (2 Bft) W-NW 1,00 h 3,8 C 9,9 km/h (2 Bft)
30.04.2016 10:00 15,2 C 21,1 C 47 % 1017,4 hPa 0,0 mm 4,9 km/h (1 Bft) NW 1,00 h 3,9 C 6,2 km/h (2 Bft)
30.04.2016 11:00 15,8 C 20,1 C 41 % 1017,8 hPa 0,0 mm 11,0 km/h (2 Bft) NO 0,67 h 2,4 C 15,1 km/h (3 Bft)
30.04.2016 12:00 15,7 C 18,9 C 36 % 1017,1 hPa 0,0 mm 14,0 km/h (3 Bft) O-NO 0,08 h 0,8 C 17,4 km/h (3 Bft)
30.04.2016 13:00 16,5 C 19,1 C 36 % 1016,0 hPa 0,0 mm 14,7 km/h (3 Bft) N-NO 0,00 h 1,5 C 17,7 km/h (3 Bft)
30.04.2016 14:00 17,1 C 20,1 C 36 % 1014,7 hPa 0,0 mm 13,1 km/h (3 Bft) O-NO 0,17 h 1,9 C 18,1 km/h (3 Bft)
30.04.2016 15:00 17,6 C 20,9 C 35 % 1013,5 hPa 0,0 mm 13,9 km/h (3 Bft) O-NO 0,25 h 1,8 C 18,3 km/h (3 Bft)
30.04.2016 16:00 16,8 C 19,8 C 34 % 1012,6 hPa 0,0 mm 11,4 km/h (2 Bft) NO 0,50 h 0,9 C 14,9 km/h (3 Bft)
30.04.2016 17:00 16,3 C 17,3 C 34 % 1011,9 hPa 0,0 mm 13,7 km/h (3 Bft) NO 0,00 h 0,4 C 16,0 km/h (3 Bft)
30.04.2016 18:00 15,3 C 15,9 C 36 % 1011,4 hPa 0,0 mm 8,6 km/h (2 Bft) NO 0,00 h 0,2 C 10,3 km/h (2 Bft)
30.04.2016 19:00 14,0 C 14,3 C 41 % 1011,1 hPa 0,0 mm 3,1 km/h (1 Bft) N-NO 0,00 h 1,0 C 4,4 km/h (1 Bft)
30.04.2016 20:00 12,0 C 11,9 C 45 % 1011,0 hPa 0,0 mm 1,6 km/h (1 Bft) SW 0,00 h 0,4 C 3,1 km/h (1 Bft)
30.04.2016 21:00 10,4 C 10,3 C 52 % 1010,9 hPa 0,0 mm 0,6 km/h (0 Bft) SW 0,00 h 1,0 C 0,6 km/h (0 Bft)
30.04.2016 22:00 9,5 C 9,4 C 57 % 1010,8 hPa 0,0 mm 3,4 km/h (1 Bft) S 0,00 h 1,4 C 5,3 km/h (1 Bft)
30.04.2016 23:00 8,9 C 8,5 C 64 % 1011,0 hPa 0,0 mm 13,7 km/h (3 Bft) W-SW 0,00 h 2,5 C 17,2 km/h (3 Bft)
01.05.2016 00:00 7,6 C 7,1 C 74 % 1011,3 hPa 0,0 mm 13,2 km/h (3 Bft) W-SW 0,00 h 3,2 C 18,9 km/h (3 Bft)
01.05.2016 01:00 6,8 C 6,5 C 78 % 1011,3 hPa 0,0 mm 7,7 km/h (2 Bft) W-SW 0,00 h 3,2 C 9,5 km/h (2 Bft)
01.05.2016 02:00 6,3 C 6,0 C 79 % 1011,5 hPa 0,0 mm 7,9 km/h (2 Bft) S 0,00 h 2,9 C 9,9 km/h (2 Bft)
01.05.2016 03:00 5,9 C 5,6 C 79 % 1011,0 hPa 0,0 mm 6,4 km/h (2 Bft) W 0,00 h 2,5 C 7,2 km/h (2 Bft)
01.05.2016 04:00 5,5 C 5,4 C 79 % 1011,3 hPa 0,0 mm 4,9 km/h (1 Bft) W 0,00 h 2,2 C 7,6 km/h (2 Bft)
01.05.2016 05:00 5,6 C 5,4 C 80 % 1011,4 hPa 0,0 mm 5,1 km/h (1 Bft) W-SW 0,00 h 2,4 C 7,0 km/h (2 Bft)
01.05.2016 06:00 5,7 C 5,5 C 81 % 1011,5 hPa 0,0 mm 7,0 km/h (2 Bft) W 0,00 h 2,7 C 8,8 km/h (2 Bft)
01.05.2016 07:00 5,8 C 5,7 C 79 % 1012,1 hPa 0,0 mm 5,5 km/h (1 Bft) W 0,00 h 2,4 C 7,4 km/h (2 Bft)
01.05.2016 08:00 5,7 C 5,7 C 78 % 1012,8 hPa 0,0 mm 7,4 km/h (2 Bft) W 0,00 h 2,2 C 9,5 km/h (2 Bft)
01.05.2016 09:00 5,8 C 5,9 C 79 % 1013,4 hPa 0,0 mm 8,3 km/h (2 Bft) W-NW 0,00 h 2,4 C 11,2 km/h (2 Bft)
01.05.2016 10:00 6,1 C 6,4 C 78 % 1013,9 hPa 0,0 mm 9,4 km/h (2 Bft) W 0,00 h 2,5 C 11,3 km/h (2 Bft)
01.05.2016 11:00 6,0 C 6,5 C 78 % 1014,5 hPa 0,0 mm 9,4 km/h (2 Bft) W 0,00 h 2,5 C 10,9 km/h (2 Bft)
01.05.2016 12:00 5,9 C 6,2 C 79 % 1014,7 hPa 0,0 mm 8,1 km/h (2 Bft) W-SW 0,00 h 2,5 C 9,8 km/h (2 Bft)
01.05.2016 13:00 5,8 C 5,8 C 79 % 1015,1 hPa 0,0 mm 7,8 km/h (2 Bft) W 0,00 h 2,4 C 10,0 km/h (2 Bft)
01.05.2016 14:00 5,5 C 5,4 C 80 % 1015,3 hPa 1,4 mm 3,8 km/h (1 Bft) S 0,00 h 2,2 C 3,6 km/h (1 Bft)
01.05.2016 15:00 5,5 C 5,6 C 82 % 1015,7 hPa 1,4 mm 2,9 km/h (1 Bft) W-SW 0,00 h 2,6 C 4,5 km/h (1 Bft)
01.05.2016 16:00 5,5 C 5,6 C 82 % 1016,1 hPa 1,4 mm 3,9 km/h (1 Bft) W-SW 0,00 h 2,7 C 4,5 km/h (1 Bft)
01.05.2016 17:00 5,5 C 5,6 C 83 % 1016,7 hPa 0,7 mm 4,0 km/h (1 Bft) W-SW 0,00 h 2,9 C 5,1 km/h (1 Bft)
01.05.2016 18:00 5,5 C 5,5 C 85 % 1017,1 hPa 2,7 mm 1,7 km/h (1 Bft) W-SW 0,00 h 3,1 C 1,7 km/h (1 Bft)
01.05.2016 19:00 5,2 C 5,1 C 85 % 1017,6 hPa 2,1 mm 2,6 km/h (1 Bft) S 0,00 h 2,9 C 4,3 km/h (1 Bft)
01.05.2016 20:00 5,0 C 4,9 C 88 % 1017,9 hPa 1,4 mm 4,6 km/h (1 Bft) S 0,00 h 3,2 C 4,6 km/h (1 Bft)
01.05.2016 21:00 5,8 C 5,7 C 90 % 1018,3 hPa 1,4 mm 6,1 km/h (2 Bft) NO 0,00 h 4,2 C 9,1 km/h (2 Bft)
01.05.2016 22:00 6,1 C 5,8 C 90 % 1018,7 hPa 0,7 mm 8,0 km/h (2 Bft) N-NO 0,00 h 4,6 C 8,6 km/h (2 Bft)
01.05.2016 23:00 5,9 C 5,8 C 91 % 1018,9 hPa 0,7 mm 0,8 km/h (0 Bft) O-NO 0,00 h 4,5 C 0,5 km/h (0 Bft)
Min-Datum _ 28.04.16 28.04.16 30.04.16 26.04.16 - 01.05.16 - - 28.04.16 01.05.16
_ Min-Zeit 04:00 04:05 17:55 23:01 - 23:15 - - 04:00 23:05
Minimum _ -4,8 C -5,4 C 33 % 1003,2 hPa - 0,0 km/h (0 Bft) - - -8,2 C 0,0 km/h (0 Bft)
Max-Datum _ 30.04.16 30.04.16 01.05.16 29.04.16 27.04.16 26.04.16 - 30.04.16 01.05.16 27.04.16
_ Max-Zeit 15:50 11:00 23:20 12:00 12:15 15:50 - 16:00 23:00 16:35
Maximum _ 18,1 C 22,3 C 91 % 1019,3 hPa 4,8 mm 26,5 km/h
W-SW (4 Bft)
- 0,08 h 4,6 C 55,4 km/h
W (7 Bft)
Durchschnitt _ 4,1 C 5,2 C 68 % 1011,9 hPa #30,2 mm 6,2 km/h (2 Bft) W #21:10 h -1,7 C 8,3 km/h (2 Bft)